<?xml version='1.0' encoding='UTF-8'?><gpx version="1.1" creator="JPX - https://github.com/jenetics/jpx" xmlns="http://www.topografix.com/GPX/1/1"><trk><trkseg><trkpt lat="45.9690609" lon="13.3760575"><ele>53.0</ele><time>2026-04-09T17:43:37.913Z</time></trkpt><trkpt lat="45.9690465" lon="13.3761459"><ele>53.0</ele><time>2026-04-09T17:43:40.912Z</time></trkpt><trkpt lat="45.9690859" lon="13.3762236"><ele>53.0</ele><time>2026-04-09T17:43:45.915Z</time></trkpt><trkpt lat="45.9691437" lon="13.3762856"><ele>53.0</ele><time>2026-04-09T17:43:48.912Z</time></trkpt><trkpt lat="45.9691969" lon="13.3763409"><ele>53.0</ele><time>2026-04-09T17:43:50.911Z</time></trkpt><trkpt lat="45.9692746" lon="13.3763781"><ele>53.0</ele><time>2026-04-09T17:43:52.912Z</time></trkpt><trkpt lat="45.9693725" lon="13.3763978"><ele>53.0</ele><time>2026-04-09T17:43:54.912Z</time></trkpt><trkpt lat="45.9694401" lon="13.3764051"><ele>52.66666666666667</ele><time>2026-04-09T17:43:55.912Z</time></trkpt><trkpt lat="45.9695144" lon="13.3764016"><ele>52.333333333333336</ele><time>2026-04-09T17:43:56.911Z</time></trkpt><trkpt lat="45.9695912" lon="13.3763981"><ele>52.0</ele><time>2026-04-09T17:43:57.913Z</time></trkpt><trkpt lat="45.9696669" lon="13.3764075"><ele>51.66666666666667</ele><time>2026-04-09T17:43:58.912Z</time></trkpt><trkpt lat="45.9697485" lon="13.3764191"><ele>51.333333333333336</ele><time>2026-04-09T17:43:59.912Z</time></trkpt><trkpt lat="45.9698328" lon="13.3764322"><ele>51.0</ele><time>2026-04-09T17:44:00.911Z</time></trkpt><trkpt lat="45.969914" lon="13.3764476"><ele>51.0</ele><time>2026-04-09T17:44:01.912Z</time></trkpt><trkpt lat="45.9700001" lon="13.3764672"><ele>51.0</ele><time>2026-04-09T17:44:02.912Z</time></trkpt><trkpt lat="45.9700899" lon="13.3764917"><ele>51.0</ele><time>2026-04-09T17:44:03.913Z</time></trkpt><trkpt lat="45.9701756" lon="13.3765184"><ele>51.0</ele><time>2026-04-09T17:44:04.911Z</time></trkpt><trkpt lat="45.9702534" lon="13.3765503"><ele>51.0</ele><time>2026-04-09T17:44:05.915Z</time></trkpt><trkpt lat="45.9703266" lon="13.3765921"><ele>51.0</ele><time>2026-04-09T17:44:06.911Z</time></trkpt><trkpt lat="45.9703924" lon="13.3766403"><ele>51.0</ele><time>2026-04-09T17:44:07.912Z</time></trkpt><trkpt lat="45.9704567" lon="13.3767008"><ele>51.0</ele><time>2026-04-09T17:44:08.913Z</time></trkpt><trkpt lat="45.9705155" lon="13.3767711"><ele>51.0</ele><time>2026-04-09T17:44:09.913Z</time></trkpt><trkpt lat="45.9705767" lon="13.3768492"><ele>51.0</ele><time>2026-04-09T17:44:10.913Z</time></trkpt><trkpt lat="45.970641" lon="13.3769357"><ele>51.0</ele><time>2026-04-09T17:44:11.913Z</time></trkpt><trkpt lat="45.9707019" lon="13.3770226"><ele>51.0</ele><time>2026-04-09T17:44:12.913Z</time></trkpt><trkpt lat="45.9707668" lon="13.3771086"><ele>51.0</ele><time>2026-04-09T17:44:13.911Z</time></trkpt><trkpt lat="45.9708271" lon="13.3771955"><ele>51.0</ele><time>2026-04-09T17:44:14.917Z</time></trkpt><trkpt lat="45.9708932" lon="13.3772853"><ele>51.0</ele><time>2026-04-09T17:44:15.911Z</time></trkpt><trkpt lat="45.9709626" lon="13.3773772"><ele>51.0</ele><time>2026-04-09T17:44:16.912Z</time></trkpt><trkpt lat="45.9710353" lon="13.3774687"><ele>51.0</ele><time>2026-04-09T17:44:17.913Z</time></trkpt><trkpt lat="45.9711103" lon="13.3775688"><ele>51.199999999999996</ele><time>2026-04-09T17:44:18.913Z</time></trkpt><trkpt lat="45.9711839" lon="13.3776736"><ele>51.4</ele><time>2026-04-09T17:44:19.913Z</time></trkpt><trkpt lat="45.9712565" lon="13.3777785"><ele>51.6</ele><time>2026-04-09T17:44:20.913Z</time></trkpt><trkpt lat="45.97133" lon="13.377882"><ele>51.8</ele><time>2026-04-09T17:44:21.913Z</time></trkpt><trkpt lat="45.9714064" lon="13.377986"><ele>52.0</ele><time>2026-04-09T17:44:22.912Z</time></trkpt><trkpt lat="45.9714846" lon="13.3780948"><ele>52.0</ele><time>2026-04-09T17:44:23.911Z</time></trkpt><trkpt lat="45.9715662" lon="13.378189"><ele>52.0</ele><time>2026-04-09T17:44:24.914Z</time></trkpt><trkpt lat="45.9716511" lon="13.3782712"><ele>52.0</ele><time>2026-04-09T17:44:25.911Z</time></trkpt><trkpt lat="45.9717393" lon="13.3783552"><ele>52.0</ele><time>2026-04-09T17:44:26.914Z</time></trkpt><trkpt lat="45.9718278" lon="13.3784383"><ele>52.0</ele><time>2026-04-09T17:44:27.912Z</time></trkpt><trkpt lat="45.9719135" lon="13.3785218"><ele>52.2</ele><time>2026-04-09T17:44:28.912Z</time></trkpt><trkpt lat="45.9719941" lon="13.3786077"><ele>52.400000000000006</ele><time>2026-04-09T17:44:29.911Z</time></trkpt><trkpt lat="45.9720742" lon="13.3786867"><ele>52.599999999999994</ele><time>2026-04-09T17:44:30.913Z</time></trkpt><trkpt lat="45.9721529" lon="13.3787606"><ele>52.8</ele><time>2026-04-09T17:44:31.912Z</time></trkpt><trkpt lat="45.9722281" lon="13.3788336"><ele>53.0</ele><time>2026-04-09T17:44:32.913Z</time></trkpt><trkpt lat="45.9722994" lon="13.3789029"><ele>53.00000000000001</ele><time>2026-04-09T17:44:33.914Z</time></trkpt><trkpt lat="45.9723662" lon="13.3789702"><ele>53.0</ele><time>2026-04-09T17:44:34.911Z</time></trkpt><trkpt lat="45.9724344" lon="13.379031"><ele>53.0</ele><time>2026-04-09T17:44:35.914Z</time></trkpt><trkpt lat="45.972501" lon="13.3790877"><ele>53.0</ele><time>2026-04-09T17:44:36.917Z</time></trkpt><trkpt lat="45.9725655" lon="13.3791286"><ele>53.00000000000001</ele><time>2026-04-09T17:44:37.914Z</time></trkpt><trkpt lat="45.9726255" lon="13.3791631"><ele>53.0</ele><time>2026-04-09T17:44:38.915Z</time></trkpt><trkpt lat="45.9727418" lon="13.3792107"><ele>53.16666666666667</ele><time>2026-04-09T17:44:40.912Z</time></trkpt><trkpt lat="45.9728454" lon="13.3792226"><ele>53.333333333333336</ele><time>2026-04-09T17:44:42.913Z</time></trkpt><trkpt lat="45.972929" lon="13.3792068"><ele>53.5</ele><time>2026-04-09T17:44:44.913Z</time></trkpt><trkpt lat="45.9729737" lon="13.3791276"><ele>53.66666666666667</ele><time>2026-04-09T17:44:46.913Z</time></trkpt><trkpt lat="45.9730154" lon="13.3789879"><ele>53.833333333333336</ele><time>2026-04-09T17:44:48.912Z</time></trkpt><trkpt lat="45.973028" lon="13.3788852"><ele>54.0</ele><time>2026-04-09T17:44:49.914Z</time></trkpt><trkpt lat="45.9730431" lon="13.3787719"><ele>54.166666666666664</ele><time>2026-04-09T17:44:50.914Z</time></trkpt><trkpt lat="45.9730613" lon="13.3786631"><ele>54.33333333333333</ele><time>2026-04-09T17:44:51.912Z</time></trkpt><trkpt lat="45.9730857" lon="13.378548"><ele>54.5</ele><time>2026-04-09T17:44:52.913Z</time></trkpt><trkpt lat="45.9731041" lon="13.3784202"><ele>54.666666666666664</ele><time>2026-04-09T17:44:53.912Z</time></trkpt><trkpt lat="45.9731217" lon="13.3782892"><ele>54.83333333333333</ele><time>2026-04-09T17:44:54.913Z</time></trkpt><trkpt lat="45.9731315" lon="13.3781575"><ele>55.0</ele><time>2026-04-09T17:44:55.913Z</time></trkpt><trkpt lat="45.9731426" lon="13.3780315"><ele>54.33333333333333</ele><time>2026-04-09T17:44:56.912Z</time></trkpt><trkpt lat="45.9731526" lon="13.3779143"><ele>53.66666666666667</ele><time>2026-04-09T17:44:57.913Z</time></trkpt><trkpt lat="45.9731535" lon="13.3778044"><ele>53.0</ele><time>2026-04-09T17:44:58.913Z</time></trkpt><trkpt lat="45.97309" lon="13.376125"><ele>53.0</ele><time>2026-04-09T17:45:25.413Z</time></trkpt><trkpt lat="45.9730412" lon="13.3754256"><ele>53.0</ele><time>2026-04-09T17:45:26.413Z</time></trkpt><trkpt lat="45.973004" lon="13.3750002"><ele>53.0</ele><time>2026-04-09T17:45:27.418Z</time></trkpt><trkpt lat="45.9729447" lon="13.374523"><ele>52.66666666666667</ele><time>2026-04-09T17:45:28.917Z</time></trkpt><trkpt lat="45.9729175" lon="13.3742358"><ele>52.33333333333333</ele><time>2026-04-09T17:45:29.915Z</time></trkpt><trkpt lat="45.9728675" lon="13.3739112"><ele>52.0</ele><time>2026-04-09T17:45:30.913Z</time></trkpt><trkpt lat="45.9728368" lon="13.3736088"><ele>51.666666666666664</ele><time>2026-04-09T17:45:31.911Z</time></trkpt><trkpt lat="45.9728012" lon="13.3733282"><ele>51.33333333333333</ele><time>2026-04-09T17:45:32.912Z</time></trkpt><trkpt lat="45.9727426" lon="13.3730219"><ele>51.0</ele><time>2026-04-09T17:45:33.912Z</time></trkpt><trkpt lat="45.9726967" lon="13.3727761"><ele>51.0</ele><time>2026-04-09T17:45:34.912Z</time></trkpt><trkpt lat="45.9726613" lon="13.372509"><ele>51.0</ele><time>2026-04-09T17:45:35.912Z</time></trkpt><trkpt lat="45.9726361" lon="13.3722809"><ele>51.0</ele><time>2026-04-09T17:45:36.912Z</time></trkpt><trkpt lat="45.9726115" lon="13.3720649"><ele>51.25</ele><time>2026-04-09T17:45:37.913Z</time></trkpt><trkpt lat="45.9725849" lon="13.371869"><ele>51.5</ele><time>2026-04-09T17:45:38.911Z</time></trkpt><trkpt lat="45.9725555" lon="13.3716841"><ele>51.75</ele><time>2026-04-09T17:45:39.913Z</time></trkpt><trkpt lat="45.9725258" lon="13.3715129"><ele>52.0</ele><time>2026-04-09T17:45:40.911Z</time></trkpt><trkpt lat="45.9724975" lon="13.3713546"><ele>51.99999999999999</ele><time>2026-04-09T17:45:41.912Z</time></trkpt><trkpt lat="45.9724748" lon="13.3712091"><ele>52.0</ele><time>2026-04-09T17:45:42.911Z</time></trkpt><trkpt lat="45.9724592" lon="13.3710806"><ele>52.0</ele><time>2026-04-09T17:45:43.912Z</time></trkpt><trkpt lat="45.9724548" lon="13.3709613"><ele>52.0</ele><time>2026-04-09T17:45:44.913Z</time></trkpt><trkpt lat="45.9724513" lon="13.3708477"><ele>51.99999999999999</ele><time>2026-04-09T17:45:45.911Z</time></trkpt><trkpt lat="45.9724508" lon="13.3707415"><ele>52.0</ele><time>2026-04-09T17:45:46.911Z</time></trkpt><trkpt lat="45.9724748" lon="13.37065"><ele>51.99999999999999</ele><time>2026-04-09T17:45:47.912Z</time></trkpt><trkpt lat="45.9725017" lon="13.3705462"><ele>52.0</ele><time>2026-04-09T17:45:48.912Z</time></trkpt><trkpt lat="45.972534" lon="13.3704422"><ele>52.0</ele><time>2026-04-09T17:45:49.912Z</time></trkpt><trkpt lat="45.9725683" lon="13.3703401"><ele>52.0</ele><time>2026-04-09T17:45:50.913Z</time></trkpt><trkpt lat="45.9725944" lon="13.3702401"><ele>51.99999999999999</ele><time>2026-04-09T17:45:51.912Z</time></trkpt><trkpt lat="45.9726155" lon="13.3701429"><ele>52.0</ele><time>2026-04-09T17:45:52.911Z</time></trkpt><trkpt lat="45.9726276" lon="13.3700394"><ele>52.0</ele><time>2026-04-09T17:45:53.912Z</time></trkpt><trkpt lat="45.9726282" lon="13.3699292"><ele>52.0</ele><time>2026-04-09T17:45:54.913Z</time></trkpt><trkpt lat="45.9726166" lon="13.3698206"><ele>52.0</ele><time>2026-04-09T17:45:55.911Z</time></trkpt><trkpt lat="45.972585" lon="13.3696902"><ele>52.0</ele><time>2026-04-09T17:45:56.913Z</time></trkpt><trkpt lat="45.9725428" lon="13.3695379"><ele>52.0</ele><time>2026-04-09T17:45:57.912Z</time></trkpt><trkpt lat="45.9724934" lon="13.3693693"><ele>52.0</ele><time>2026-04-09T17:45:58.913Z</time></trkpt><trkpt lat="45.9724427" lon="13.3691969"><ele>52.0</ele><time>2026-04-09T17:45:59.913Z</time></trkpt><trkpt lat="45.972392" lon="13.3690273"><ele>52.0</ele><time>2026-04-09T17:46:00.912Z</time></trkpt><trkpt lat="45.972342" lon="13.3688664"><ele>52.0</ele><time>2026-04-09T17:46:01.912Z</time></trkpt><trkpt lat="45.9722946" lon="13.3687132"><ele>51.99999999999999</ele><time>2026-04-09T17:46:02.913Z</time></trkpt><trkpt lat="45.9722544" lon="13.368571"><ele>52.0</ele><time>2026-04-09T17:46:03.912Z</time></trkpt><trkpt lat="45.9722164" lon="13.3684452"><ele>52.0</ele><time>2026-04-09T17:46:04.913Z</time></trkpt><trkpt lat="45.9721841" lon="13.368332"><ele>52.0</ele><time>2026-04-09T17:46:05.911Z</time></trkpt><trkpt lat="45.9721473" lon="13.3682319"><ele>51.99999999999999</ele><time>2026-04-09T17:46:06.915Z</time></trkpt><trkpt lat="45.9721087" lon="13.3681591"><ele>52.0</ele><time>2026-04-09T17:46:07.914Z</time></trkpt><trkpt lat="45.9720261" lon="13.3680506"><ele>51.8</ele><time>2026-04-09T17:46:09.915Z</time></trkpt><trkpt lat="45.9719357" lon="13.3679436"><ele>51.6</ele><time>2026-04-09T17:46:11.914Z</time></trkpt><trkpt lat="45.9718403" lon="13.3678208"><ele>51.4</ele><time>2026-04-09T17:46:13.914Z</time></trkpt><trkpt lat="45.9717894" lon="13.3677534"><ele>51.199999999999996</ele><time>2026-04-09T17:46:14.915Z</time></trkpt><trkpt lat="45.971737" lon="13.3676868"><ele>51.0</ele><time>2026-04-09T17:46:15.913Z</time></trkpt><trkpt lat="45.9716823" lon="13.3676189"><ele>50.5</ele><time>2026-04-09T17:46:16.913Z</time></trkpt><trkpt lat="45.9716268" lon="13.3675476"><ele>50.0</ele><time>2026-04-09T17:46:17.914Z</time></trkpt><trkpt lat="45.9715703" lon="13.3674757"><ele>49.5</ele><time>2026-04-09T17:46:18.914Z</time></trkpt><trkpt lat="45.9715079" lon="13.3674052"><ele>49.0</ele><time>2026-04-09T17:46:19.915Z</time></trkpt><trkpt lat="45.9714426" lon="13.3673353"><ele>48.5</ele><time>2026-04-09T17:46:20.914Z</time></trkpt><trkpt lat="45.9713815" lon="13.367265"><ele>48.0</ele><time>2026-04-09T17:46:21.914Z</time></trkpt><trkpt lat="45.9713245" lon="13.3671951"><ele>48.0</ele><time>2026-04-09T17:46:22.913Z</time></trkpt><trkpt lat="45.9712635" lon="13.3671282"><ele>48.0</ele><time>2026-04-09T17:46:23.914Z</time></trkpt><trkpt lat="45.9712034" lon="13.3670644"><ele>48.0</ele><time>2026-04-09T17:46:24.914Z</time></trkpt><trkpt lat="45.9711431" lon="13.3670001"><ele>48.0</ele><time>2026-04-09T17:46:25.914Z</time></trkpt><trkpt lat="45.9710817" lon="13.366938"><ele>48.0</ele><time>2026-04-09T17:46:26.914Z</time></trkpt><trkpt lat="45.9710153" lon="13.3668754"><ele>48.0</ele><time>2026-04-09T17:46:27.913Z</time></trkpt><trkpt lat="45.9709481" lon="13.3668184"><ele>47.99999999999999</ele><time>2026-04-09T17:46:28.911Z</time></trkpt><trkpt lat="45.9708817" lon="13.3667682"><ele>48.0</ele><time>2026-04-09T17:46:29.912Z</time></trkpt><trkpt lat="45.9708161" lon="13.3667263"><ele>48.0</ele><time>2026-04-09T17:46:30.913Z</time></trkpt><trkpt lat="45.9707467" lon="13.3666872"><ele>48.0</ele><time>2026-04-09T17:46:31.913Z</time></trkpt><trkpt lat="45.9706796" lon="13.3666532"><ele>48.0</ele><time>2026-04-09T17:46:32.913Z</time></trkpt><trkpt lat="45.9706071" lon="13.3666215"><ele>47.99999999999999</ele><time>2026-04-09T17:46:33.912Z</time></trkpt><trkpt lat="45.9705354" lon="13.3665884"><ele>48.0</ele><time>2026-04-09T17:46:34.911Z</time></trkpt><trkpt lat="45.9704694" lon="13.3665534"><ele>47.857142857142854</ele><time>2026-04-09T17:46:35.911Z</time></trkpt><trkpt lat="45.9704031" lon="13.3665155"><ele>47.714285714285715</ele><time>2026-04-09T17:46:36.913Z</time></trkpt><trkpt lat="45.9703382" lon="13.3664726"><ele>47.57142857142857</ele><time>2026-04-09T17:46:37.911Z</time></trkpt><trkpt lat="45.9702701" lon="13.3664339"><ele>47.42857142857143</ele><time>2026-04-09T17:46:38.913Z</time></trkpt><trkpt lat="45.9702047" lon="13.3663877"><ele>47.285714285714285</ele><time>2026-04-09T17:46:39.913Z</time></trkpt><trkpt lat="45.970141" lon="13.3663393"><ele>47.14285714285714</ele><time>2026-04-09T17:46:40.913Z</time></trkpt><trkpt lat="45.9700764" lon="13.3662953"><ele>47.0</ele><time>2026-04-09T17:46:41.913Z</time></trkpt><trkpt lat="45.9700143" lon="13.3662536"><ele>47.0</ele><time>2026-04-09T17:46:42.912Z</time></trkpt><trkpt lat="45.9699514" lon="13.3662157"><ele>47.0</ele><time>2026-04-09T17:46:43.912Z</time></trkpt><trkpt lat="45.9698864" lon="13.3661849"><ele>47.0</ele><time>2026-04-09T17:46:44.913Z</time></trkpt><trkpt lat="45.9698181" lon="13.3661525"><ele>47.0</ele><time>2026-04-09T17:46:45.912Z</time></trkpt><trkpt lat="45.9697484" lon="13.3661149"><ele>47.0</ele><time>2026-04-09T17:46:46.912Z</time></trkpt><trkpt lat="45.9696769" lon="13.3660828"><ele>47.0</ele><time>2026-04-09T17:46:47.913Z</time></trkpt><trkpt lat="45.9696065" lon="13.3660513"><ele>47.0</ele><time>2026-04-09T17:46:48.913Z</time></trkpt><trkpt lat="45.9695362" lon="13.3660202"><ele>47.0</ele><time>2026-04-09T17:46:49.911Z</time></trkpt><trkpt lat="45.9694663" lon="13.365987"><ele>47.0</ele><time>2026-04-09T17:46:50.913Z</time></trkpt><trkpt lat="45.9693964" lon="13.3659548"><ele>47.0</ele><time>2026-04-09T17:46:51.913Z</time></trkpt><trkpt lat="45.9693279" lon="13.3659259"><ele>47.0</ele><time>2026-04-09T17:46:52.913Z</time></trkpt><trkpt lat="45.9692578" lon="13.3658991"><ele>47.0</ele><time>2026-04-09T17:46:53.914Z</time></trkpt><trkpt lat="45.9691892" lon="13.3658743"><ele>47.0</ele><time>2026-04-09T17:46:54.912Z</time></trkpt><trkpt lat="45.969121" lon="13.3658452"><ele>47.0</ele><time>2026-04-09T17:46:55.912Z</time></trkpt><trkpt lat="45.9690544" lon="13.3658121"><ele>47.14285714285714</ele><time>2026-04-09T17:46:56.918Z</time></trkpt><trkpt lat="45.968987" lon="13.3657827"><ele>47.285714285714285</ele><time>2026-04-09T17:46:57.913Z</time></trkpt><trkpt lat="45.9689172" lon="13.3657522"><ele>47.42857142857143</ele><time>2026-04-09T17:46:58.911Z</time></trkpt><trkpt lat="45.9688458" lon="13.3657219"><ele>47.57142857142857</ele><time>2026-04-09T17:46:59.911Z</time></trkpt><trkpt lat="45.9687783" lon="13.3656906"><ele>47.714285714285715</ele><time>2026-04-09T17:47:00.914Z</time></trkpt><trkpt lat="45.9687133" lon="13.3656555"><ele>47.857142857142854</ele><time>2026-04-09T17:47:01.912Z</time></trkpt><trkpt lat="45.9686499" lon="13.3656251"><ele>48.0</ele><time>2026-04-09T17:47:02.912Z</time></trkpt><trkpt lat="45.9685358" lon="13.3655738"><ele>48.0</ele><time>2026-04-09T17:47:04.912Z</time></trkpt><trkpt lat="45.9684292" lon="13.365517"><ele>48.0</ele><time>2026-04-09T17:47:06.913Z</time></trkpt><trkpt lat="45.9683178" lon="13.36547"><ele>48.0</ele><time>2026-04-09T17:47:08.913Z</time></trkpt><trkpt lat="45.9681978" lon="13.3654439"><ele>48.0</ele><time>2026-04-09T17:47:10.912Z</time></trkpt><trkpt lat="45.9680801" lon="13.3654425"><ele>48.2</ele><time>2026-04-09T17:47:12.913Z</time></trkpt><trkpt lat="45.9679585" lon="13.3654467"><ele>48.4</ele><time>2026-04-09T17:47:14.913Z</time></trkpt><trkpt lat="45.9678954" lon="13.3654561"><ele>48.6</ele><time>2026-04-09T17:47:15.913Z</time></trkpt><trkpt lat="45.9678307" lon="13.3654638"><ele>48.800000000000004</ele><time>2026-04-09T17:47:16.913Z</time></trkpt><trkpt lat="45.9677097" lon="13.3654563"><ele>49.0</ele><time>2026-04-09T17:47:18.912Z</time></trkpt><trkpt lat="45.9676002" lon="13.3654209"><ele>48.6</ele><time>2026-04-09T17:47:20.914Z</time></trkpt><trkpt lat="45.9675015" lon="13.3653383"><ele>48.2</ele><time>2026-04-09T17:47:22.913Z</time></trkpt><trkpt lat="45.9674242" lon="13.3652163"><ele>47.800000000000004</ele><time>2026-04-09T17:47:24.913Z</time></trkpt><trkpt lat="45.96738" lon="13.3651493"><ele>47.400000000000006</ele><time>2026-04-09T17:47:25.913Z</time></trkpt><trkpt lat="45.9672941" lon="13.3650305"><ele>47.0</ele><time>2026-04-09T17:47:27.912Z</time></trkpt><trkpt lat="45.9672162" lon="13.3649169"><ele>47.0</ele><time>2026-04-09T17:47:29.914Z</time></trkpt><trkpt lat="45.9671338" lon="13.3648005"><ele>47.0</ele><time>2026-04-09T17:47:31.913Z</time></trkpt><trkpt lat="45.9670402" lon="13.3646872"><ele>47.0</ele><time>2026-04-09T17:47:33.919Z</time></trkpt><trkpt lat="45.9669468" lon="13.3645895"><ele>47.0</ele><time>2026-04-09T17:47:35.914Z</time></trkpt><trkpt lat="45.966845" lon="13.3645054"><ele>47.0</ele><time>2026-04-09T17:47:37.913Z</time></trkpt><trkpt lat="45.9667382" lon="13.3644228"><ele>47.0</ele><time>2026-04-09T17:47:39.915Z</time></trkpt><trkpt lat="45.9666279" lon="13.3643421"><ele>47.0</ele><time>2026-04-09T17:47:41.915Z</time></trkpt><trkpt lat="45.9665121" lon="13.3642732"><ele>47.0</ele><time>2026-04-09T17:47:43.912Z</time></trkpt><trkpt lat="45.9664522" lon="13.3642372"><ele>47.0</ele><time>2026-04-09T17:47:44.914Z</time></trkpt><trkpt lat="45.9663935" lon="13.3642008"><ele>47.0</ele><time>2026-04-09T17:47:45.914Z</time></trkpt><trkpt lat="45.9663342" lon="13.3641624"><ele>47.0</ele><time>2026-04-09T17:47:46.913Z</time></trkpt><trkpt lat="45.9662756" lon="13.3641196"><ele>47.0</ele><time>2026-04-09T17:47:47.914Z</time></trkpt><trkpt lat="45.9662171" lon="13.3640761"><ele>47.0</ele><time>2026-04-09T17:47:48.916Z</time></trkpt><trkpt lat="45.9661618" lon="13.3640324"><ele>47.0</ele><time>2026-04-09T17:47:49.914Z</time></trkpt><trkpt lat="45.9660578" lon="13.3639445"><ele>47.0</ele><time>2026-04-09T17:47:51.914Z</time></trkpt><trkpt lat="45.9659689" lon="13.3638488"><ele>47.400000000000006</ele><time>2026-04-09T17:47:53.913Z</time></trkpt><trkpt lat="45.9659012" lon="13.3637485"><ele>47.800000000000004</ele><time>2026-04-09T17:47:55.914Z</time></trkpt><trkpt lat="45.9658294" lon="13.3636524"><ele>48.2</ele><time>2026-04-09T17:47:58.019Z</time></trkpt><trkpt lat="45.9657439" lon="13.3635539"><ele>48.6</ele><time>2026-04-09T17:47:59.915Z</time></trkpt><trkpt lat="45.9656615" lon="13.3634547"><ele>49.0</ele><time>2026-04-09T17:48:01.914Z</time></trkpt><trkpt lat="45.9655848" lon="13.3633584"><ele>48.0</ele><time>2026-04-09T17:48:03.913Z</time></trkpt><trkpt lat="45.9655068" lon="13.3632585"><ele>47.0</ele><time>2026-04-09T17:48:05.913Z</time></trkpt><trkpt lat="45.9654198" lon="13.3631585"><ele>46.0</ele><time>2026-04-09T17:48:07.913Z</time></trkpt><trkpt lat="45.9653316" lon="13.3630549"><ele>45.0</ele><time>2026-04-09T17:48:09.913Z</time></trkpt><trkpt lat="45.9652431" lon="13.362955"><ele>44.0</ele><time>2026-04-09T17:48:11.912Z</time></trkpt><trkpt lat="45.9651546" lon="13.3628529"><ele>44.0</ele><time>2026-04-09T17:48:13.912Z</time></trkpt><trkpt lat="45.9650727" lon="13.3627549"><ele>44.0</ele><time>2026-04-09T17:48:15.911Z</time></trkpt><trkpt lat="45.9649913" lon="13.3626529"><ele>44.0</ele><time>2026-04-09T17:48:17.911Z</time></trkpt><trkpt lat="45.964913" lon="13.3625627"><ele>44.0</ele><time>2026-04-09T17:48:19.914Z</time></trkpt><trkpt lat="45.964843" lon="13.3624752"><ele>44.0</ele><time>2026-04-09T17:48:21.913Z</time></trkpt><trkpt lat="45.9647786" lon="13.3624091"><ele>44.400000000000006</ele><time>2026-04-09T17:48:23.913Z</time></trkpt><trkpt lat="45.9647035" lon="13.3623718"><ele>44.8</ele><time>2026-04-09T17:48:25.915Z</time></trkpt><trkpt lat="45.9646227" lon="13.362408"><ele>45.2</ele><time>2026-04-09T17:48:27.913Z</time></trkpt><trkpt lat="45.964528" lon="13.3624887"><ele>45.599999999999994</ele><time>2026-04-09T17:48:29.913Z</time></trkpt><trkpt lat="45.9644145" lon="13.3625809"><ele>46.0</ele><time>2026-04-09T17:48:31.915Z</time></trkpt><trkpt lat="45.9643537" lon="13.3626232"><ele>46.0</ele><time>2026-04-09T17:48:32.915Z</time></trkpt><trkpt lat="45.9642594" lon="13.3626939"><ele>46.0</ele><time>2026-04-09T17:48:34.914Z</time></trkpt><trkpt lat="45.9641854" lon="13.3627653"><ele>46.0</ele><time>2026-04-09T17:48:55.911Z</time></trkpt><trkpt lat="45.9641113" lon="13.3628205"><ele>46.0</ele><time>2026-04-09T17:48:57.911Z</time></trkpt><trkpt lat="45.9640086" lon="13.3629054"><ele>46.0</ele><time>2026-04-09T17:48:59.913Z</time></trkpt><trkpt lat="45.9639504" lon="13.3629458"><ele>46.4</ele><time>2026-04-09T17:49:00.912Z</time></trkpt><trkpt lat="45.9638901" lon="13.3629815"><ele>46.8</ele><time>2026-04-09T17:49:01.912Z</time></trkpt><trkpt lat="45.9638331" lon="13.3630218"><ele>47.199999999999996</ele><time>2026-04-09T17:49:02.915Z</time></trkpt><trkpt lat="45.9637282" lon="13.3631005"><ele>47.599999999999994</ele><time>2026-04-09T17:49:04.915Z</time></trkpt><trkpt lat="45.9636247" lon="13.363169"><ele>48.0</ele><time>2026-04-09T17:49:06.912Z</time></trkpt><trkpt lat="45.9635261" lon="13.363227"><ele>48.0</ele><time>2026-04-09T17:49:08.914Z</time></trkpt><trkpt lat="45.9634295" lon="13.3632835"><ele>48.0</ele><time>2026-04-09T17:49:10.914Z</time></trkpt><trkpt lat="45.9633395" lon="13.3633545"><ele>48.0</ele><time>2026-04-09T17:49:12.914Z</time></trkpt><trkpt lat="45.9632755" lon="13.3634737"><ele>48.0</ele><time>2026-04-09T17:49:14.914Z</time></trkpt><trkpt lat="45.9632536" lon="13.3636063"><ele>48.0</ele><time>2026-04-09T17:49:16.913Z</time></trkpt><trkpt lat="45.9632878" lon="13.3637338"><ele>47.8</ele><time>2026-04-09T17:49:18.912Z</time></trkpt><trkpt lat="45.9633503" lon="13.3638753"><ele>47.599999999999994</ele><time>2026-04-09T17:49:20.913Z</time></trkpt><trkpt lat="45.9634343" lon="13.3640168"><ele>47.400000000000006</ele><time>2026-04-09T17:49:22.913Z</time></trkpt><trkpt lat="45.9634764" lon="13.3640891"><ele>47.2</ele><time>2026-04-09T17:49:23.913Z</time></trkpt><trkpt lat="45.9635194" lon="13.3641571"><ele>47.0</ele><time>2026-04-09T17:49:24.914Z</time></trkpt><trkpt lat="45.9635971" lon="13.36427"><ele>47.0</ele><time>2026-04-09T17:49:26.911Z</time></trkpt><trkpt lat="45.9636373" lon="13.3643551"><ele>47.0</ele><time>2026-04-09T17:49:28.912Z</time></trkpt><trkpt lat="45.9636214" lon="13.3644677"><ele>47.0</ele><time>2026-04-09T17:49:31.913Z</time></trkpt><trkpt lat="45.9635732" lon="13.364534"><ele>47.0</ele><time>2026-04-09T17:49:33.914Z</time></trkpt><trkpt lat="45.9635096" lon="13.364549"><ele>47.0</ele><time>2026-04-09T17:49:35.911Z</time></trkpt><trkpt lat="45.9634464" lon="13.3645176"><ele>47.0</ele><time>2026-04-09T17:49:38.915Z</time></trkpt></trkseg></trk></gpx>